NWS Home NWS Lubbock West Texas Mesonet Latest Conditions as of 0721 AM, Wed Dec 02, 2020

Latest   N   C   S   Daily Sum   3hrΔ   24hrΔ   Soil Data 
Site Map   24hr Precip   72hr Precip   Google Plot


Station Time of Last Temp Dew Pt. RH Wind Direction Wind Speed Wind Gust Max Wind Max Temp Min Temp Max RH Min RH Altimeter 1HR Rain Today's Rain Solar Rad Wind ChillRFTI
Abernathy 5ENE  07:15 AM 30 23 75% N911 33 mph 349° @ 0106 AM 37 30 75 48 30.15" 0 0 0 22 0
Adrian 6WSW  07:15 AM 30 24 80% N2630 37 mph 11° @ 0547 AM 34 30 85 69 30.22" 0 0 0 16 0
Aiken 3WSW  07:15 AM 33 24 67% N2124 33 mph 359° @ 0706 AM 35 31 67 56 30.15" 0 0 0 21 0
Amarillo 15NNW   07:15 AM 34 25 68% N2529 39 mph 351° @ 0528 AM 39 34 69 45 30.21" 0 0 0 21 0
Amarillo 7SSE  07:15 AM 34 24 67% N2429 44 mph 3° @ 0527 AM 36 34 67 47 30.18" 0 0 0 22 0
Amarillo 9NNE  07:15 AM 35 24 66% N2632 42 mph 4° @ 0508 AM 38 35 66 45 30.19" 0 0 0 22 0
Amherst 1NE  07:15 AM 33 26 74% N2328 33 mph 338° @ 0245 AM 38 32 75 46 30.17" 0 0 0 20 0
Andrews 2E  07:15 AM 34 24 66% N1724 30 mph 338° @ 0208 AM 41 34 66 35 30.16" 0 0 0 23 0
Anton 6SSW  07:15 AM 32 25 74% NW1619 30 mph 331° @ 0400 AM 39 32 74 42 30.17" 0 0 0 21 0
Aspermont 3NE  07:15 AM 38 26 61% NW1520 24 mph 327° @ 0625 AM 44 36 73 54 30.09" 0 0 1   0
Big Bend NP - Castolon  07:15 AM 48 14 25% NW1113 21 mph 302° @ 0353 AM 51 45 40 21 30.13" 0 0 0   0
Big Bend NP - Persimmon Gap  07:15 AM 44 14 29% N1821 41 mph 349° @ 0455 AM 53 44 36 19 30.15" 0 0 1   0
Big Lake 1WNW  07:15 AM 36 19 51% NW1115 18 mph 200° @ 1247 AM 46 35 57 42 30.14" 0 0 1   0
Bootleg 11WNW  07:15 AM 28 27 97% N2531 37 mph 345° @ 0212 AM 33 28 98 67 30.21" 0 0 0 13 0
Borger 7E  07:15 AM 35 25 67% N2433 43 mph 2° @ 0607 AM 36 34 68 52 30.18" 0 0 0 23 0
Boys Ranch 1WSW  07:15 AM 34 26 71% N1215 32 mph 1° @ 0600 AM 39 34 73 49 30.26" 0 0 0 25 0
Brownfield 2S  07:15 AM 34 25 69% N1521 32 mph 358° @ 1250 AM 41 34 69 36 30.16" 0 0 0 24 0
Canadian 6E  07:15 AM 33 29 87% N2225 42 mph 351° @ 0312 AM 37 33 87 58 30.13" 0 0 0 21 0
Caprock Canyons State Park  07:15 AM 37 24 61% N2836 44 mph 347° @ 0341 AM 42 37 61 41 30.14" 0 0 0   0
Childress 2NNE  07:15 AM 38 25 59% N2334 39 mph 340° @ 0700 AM 39 36 70 57 30.08" 0 0 0   0
Clarendon 2WSW  07:15 AM 35 25 67% N2534 41 mph 2° @ 0520 AM 38 35 67 54 30.13" 0 0 0 23 0
Claude 12SW  07:15 AM 33 24 70% N2832 41 mph 345° @ 0457 AM 34 33 71 55 30.14" 0 0 0 19 0
Clyde 2WNW  07:15 AM 35 27 71% NW1113 21 mph 178° @ 1229 AM 44 35 71 47 30.06" 0 0 2 27 0
Colorado City 5NW  07:15 AM 35 23 59% NW89 16 mph 337° @ 0139 AM 45 34 73 51 30.14" 0 0 1 28 0
Comanche Springs  07:15 AM 38 27 62% NW1522 33 mph 329° @ 0652 AM 39 36 81 61 30.07" 0 0 1   0
Coyanosa 2N  07:15 AM 37 17 44% NW910 15 mph 288° @ 0241 AM 49 37 44 21 30.23" 0 0 0   0
Crane 1NNW   07:15 AM 33 17 51% W78 23 mph 15° @ 0330 AM 46 33 51 35 30.20" 0 0 1 26 0
Crowell 1E  07:15 AM 38 29 71% N1921 26 mph 342° @ 0655 AM 44 35 81 57 30.05" 0 0 1   0
Dell City  07:15 AM 32 23 67% N78 19 mph 13° @ 0108 AM 44 30 75 34 30.22" 0 0 0 26 0
Denver City 7WNW  07:15 AM 32 24 72% N1420 30 mph 352° @ 0335 AM 40 32 72 37 30.18" 0 0 0 22 0
Dimmitt 2NE  07:15 AM 33 25 74% N3238 38 mph 355° @ 0715 AM 35 31 79 51 30.16" 0 0 0 19 0
Doole 3WNW  07:15 AM 35 26 68% W89 14 mph 276° @ 0618 AM 47 32 73 46 30.09" 0 0 3 28 0
Dora NM 2SW  07:15 AM 31 24 75% N2432 34 mph 351° @ 0130 AM 36 28 77 45 30.19" 0 0 0 18 0
Dozier 3W  07:15 AM 37 27 68% N2332 41 mph 352° @ 0508 AM 39 37 68 56 30.11" 0 0 0   0
Earth 9WSW  07:15 AM 34 26 72% N2435 35 mph 356° @ 0715 AM 37 33 75 46 30.19" 0 0 0 22 0
Endee NM 2SW  07:15 AM 31 27 84% N2629 39 mph 349° @ 0205 AM 38 31 84 59 30.25" 0 0 0 17 0
Estelline 3SSE  07:15 AM 39 26 57% N2430 36 mph 353° @ 0610 AM 41 39 61 52 30.13" 0 0 0   0
Floydada 2NNE  07:15 AM 34 22 61% N1924 30 mph 349° @ 0505 AM 39 33 61 48 30.11" 0 0 0 23 0
Fluvanna 3WNW  07:15 AM 36 21 55% N2736 38 mph 340° @ 0625 AM 42 36 55 49 30.10" 0 0 0   0
Fort Chadbourne  07:15 AM 39 26 60% NW69 23 mph 330° @ 0629 AM 43 31 77 53 30.09" 0 0 1   0
Fort Lancaster  07:15 AM 41 19 41% NW1215 18 mph 319° @ 0707 AM 46 31 69 41 30.15" 0 0 1   0
Fort Lewis CO  07:15 AM 17 3 53% E89 14 mph 40° @ 0234 AM 22 10 61 36 30.18" 0 0 0 6 0
Fort McKavett  07:15 AM 34 25 70% W46 13 mph 178° @ 1208 AM 46 32 73 44 30.09" 0 0 2   0
Friona 2NE  07:15 AM 31 25 77% N2733 39 mph 353° @ 0605 AM 33 31 79 56 30.20" 0 0 0 17 0
Fritch 1WNW  07:15 AM 36 26 66% N2026 44 mph 14° @ 0552 AM 40 36 68 47 30.20" 0 0 0   0
Gail 2ESE  07:15 AM 38 21 51% N2228 33 mph 341° @ 0711 AM 44 37 52 46 30.12" 0 0 1   0
Goodlett 3W  07:15 AM 38 28 70% N2130 36 mph 351° @ 0705 AM 38 35 77 65 30.07" 0 0 1   0
Goodnight  07:15 AM 34 24 67% N3440 43 mph 355° @ 0659 AM 36 33 67 54 30.15" 0 0 0 20 0
Graham 5SSW  07:15 AM 35 21 55% NW1924 34 mph 343° @ 0639 AM 42 35 55 44 30.13" 0 0 1 24 0
Guadalupe Mtns Natl Park  07:15 AM 31 19 62% N79 31 mph 28° @ 0110 AM 38 28 69 35 30.19" 0 0 0 24 0
Guthrie 10WSW  07:15 AM 39 23 53% N2534 36 mph 340° @ 0650 AM 43 39 53 48 30.07" 0 0 0   0
Hackberry 2SSE  07:15 AM 38 26 60% N2225 31 mph 332° @ 0632 AM 39 37 74 59 30.08" 0 0 1   0
Happy 1E  07:15 AM 34 25 69% N3136 41 mph 8° @ 0612 AM 35 34 69 51 30.16" 0 0 0 20 0
Hart 3N  07:15 AM 33 25 74% N2734 38 mph 354° @ 0705 AM 36 32 80 51 30.15" 0 0 0 20 0
Haskell 1NW  07:15 AM 37 28 71% NW1722 22 mph 323° @ 0715 AM 45 36 76 61 30.04" 0 0 1   0
Hefner 1SW  07:15 AM 37 29 73% NW2022 24 mph 313° @ 0707 AM 44 36 79 60 30.04" 0 0 2   0
Hereford 2NW  07:15 AM 31 27 84% N2331 36 mph 349° @ 0450 AM 34 31 84 55 30.19" 0 0 0 18 0
Hobbs NM 5NW  07:15 AM 32 22 67% N1012 27 mph 6° @ 1233 AM 40 32 67 30 30.22" 0 0 0 24 0
Jayton 1SSE  07:15 AM 39 24 54% N1926 32 mph 333° @ 0640 AM 44 39 64 50 30.09" 0 0 1   0
Junction 1SSW  07:15 AM 28 27 96% S33 5 mph 23° @ 0657 AM 31 27 97 87 30.09" 0 0 3   0
Kent 9E  07:15 AM 35 20 53% N69 23 mph 308° @ 1206 AM 47 35 54 22 30.24" 0 0 0   0
Knox City 3NW  07:15 AM 39 27 62% N1620 28 mph 339° @ 0709 AM 47 37 71 54 30.06" 0 0 1   0
Lake Alan Henry 1NW  07:15 AM 37 22 54% N1317 23 mph 337° @ 0151 AM 43 37 55 48 30.12" 0 0 1   0
Lake McClellan 2NW  07:15 AM 33 25 70% N3034 44 mph 359° @ 0638 AM 36 33 71 56 30.12" 0 0 0 19 0
Lamesa 2SE  07:15 AM 35 25 67% N1623 33 mph 337° @ 0645 AM 43 35 67 41 30.16" 0 0 0 25 0
Lesley 2S  07:15 AM 39 26 60% N2530 39 mph 354° @ 0441 AM 42 39 60 47 30.15" 0 0 0   0
Levelland 4S  07:15 AM 32 25 73% NW1823 35 mph 338° @ 0447 AM 40 32 73 38 30.17" 0 0 0 21 0
Lomax 1SSE  07:15 AM 34 19 54% NW910 20 mph 327° @ 0437 AM 42 34 54 43 30.17" 0 0 1 27 0
Lubbock 3WNW TTU  07:15 AM 33 26 73% NW1014 26 mph 340° @ 0125 AM 40 33 73 45 30.17" 0 0 0 25 0
McAdoo 3NNW  07:15 AM 35 22 60% N2331 39 mph 1° @ 0621 AM 40 35 60 48 30.10" 0 0 0 23 0
McCamey 1SSW  07:15 AM 31 15 50% W77 18 mph 335° @ 0343 AM 47 31 50 35 30.21" 0 0 1 24 0
McLean 1E  07:15 AM 33 25 73% N2837 44 mph 0° @ 0440 AM 35 33 75 60 30.10" 0 0 0 19 0
Memphis 1NE  07:15 AM 38 26 63% N3038 46 mph 356° @ 0530 AM 41 38 63 53 30.11" 0 0 0   0
Menard 2NW   07:15 AM 40 27 59% NW912 12 mph 300° @ 0704 AM 43 30 90 54 30.08" 0 0 2   0
Mertzon 3NNE  07:15 AM 35 22 59% W68 17 mph 293° @ 0327 AM 46 35 59 43 30.14" 0 0 2   0
Morton 1ENE  07:15 AM 32 25 73% N2126 30 mph 346° @ 0135 AM 39 32 74 38 30.19" 0 0 0 20 0
Muleshoe 2SSW  07:15 AM 33 27 77% N1725 31 mph 350° @ 0245 AM 38 33 78 46 30.20" 0 0 0 22 0
New Home  07:15 AM 33 24 71% N1519 29 mph 344° @ 0240 AM 41 33 71 42 30.15" 0 0 0 23 0
Northfield 1S  07:15 AM 38 24 56% N2231 38 mph 349° @ 0645 AM 41 38 57 49 30.12" 0 0 0   0
O'Donnell 1N  07:15 AM 34 24 68% NW1722 27 mph 340° @ 1255 AM 42 34 68 43 30.14" 0 0 0 23 0
Odell 4ENE  07:15 AM 34 29 82% N1622 22 mph 345° @ 0715 AM 40 29 89 60 30.05" 0 0 1 24 0
Olton 6S  07:15 AM 33 25 72% N1723 33 mph 353° @ 0655 AM 37 32 75 48 30.15" 0 0 1 22 0
Paducah 10SW  07:15 AM 37 25 60% N2533 36 mph 344° @ 0705 AM 40 37 64 57 30.08" 0 0 0   0
Palo Duro 4E (JA Ranch)  07:15 AM 37 25 62% N3138 43 mph 360° @ 0506 AM 41 37 62 48 30.15" 0 0 0   0
Palo Duro Canyon SP Floor  07:15 AM 37 25 62% NW1014 36 mph 332° @ 0554 AM 39 36 63 45 30.19" 0 0 0   0
Palo Duro Canyon State Park Rim  07:15 AM 34 23 65% N2533 39 mph 351° @ 0206 AM 38 34 65 44 30.17" 0 0 0 21 0
Palo Duro Reservoir 1NW   07:15 AM 35 25 67% N2633 43 mph 3° @ 0506 AM 37 34 67 53 30.19" 0 0 0 22 0
Pampa 2E  07:15 AM 33 25 72% N2940 42 mph 349° @ 0350 AM 35 32 73 58 30.12" 0 0 0 19 0
Panhandle 1SSW  07:15 AM 33 25 72% N2127 43 mph 349° @ 0622 AM 35 33 72 57 30.17" 0 0 0 21 0
Plains 3N  07:15 AM 31 25 77% N1823 33 mph 348° @ 0340 AM 39 31 77 40 30.18" 0 0 0 19 0
Plainview 1S  07:15 AM 34 24 65% N2738 38 mph 350° @ 0715 AM 38 33 65 48 30.14" 0 0 0 21 0
Post 1NE  07:15 AM 36 22 55% NW1520 32 mph 331° @ 0156 AM 43 36 55 45 30.13" 0 0 0   0
Ralls 1SE  07:15 AM 34 20 54% N1621 30 mph 333° @ 0325 AM 39 33 54 46 30.14" 0 0 0 24 0
Reese Center  07:15 AM 32 25 74% N1520 32 mph 348° @ 1219 AM 39 32 74 43 30.16" 0 0 0 22 0
Roaring Springs 3N  07:15 AM 37 25 64% NW2635 41 mph 327° @ 0630 AM 41 37 64 53 30.09" 0 0 0   0
Romero 11SSW  07:15 AM 32 23 71% N2427 42 mph 360° @ 1255 AM 37 32 76 64 30.23" 0 0 0 19 0
Rotan 5W  07:15 AM 38 24 57% NW1618 22 mph 225° @ 1201 AM 47 37 64 49 30.10" 0 0 1   0
San Angelo 7NW  07:15 AM 34 24 68% W79 14 mph 287° @ 0345 AM 44 33 72 47 30.11" 0 0 1 28 0
Seagraves 1SW  07:15 AM 33 25 71% N1822 28 mph 355° @ 1205 AM 41 33 71 36 30.18" 0 0 0 22 0
Segovia 7SSW  07:15 AM 41 37 85% NW56 15 mph 151° @ 0121 AM 46 41 95 60 30.08" 0 0 0   0
Seminole 2NNE  07:15 AM 34 25 67% N1518 29 mph 346° @ 0135 AM 42 34 68 34 30.18" 0 0 0 24 0
Seymour 3NW  07:15 AM 35 29 79% NW1822 22 mph 158° @ 1220 AM 46 33 88 46 30.02" 0 0 1 25 0
Sierra Blanca 1SSE  07:15 AM 32 15 48% N55 26 mph 9° @ 1216 AM 42 30 49 31 30.20" 0 0 0   0
Silverton 7ESE  07:15 AM 34 24 67% N2735 41 mph 357° @ 0510 AM 39 34 67 51 30.11" 0 0 0 21 0
Slaton 2NE  07:15 AM 33 22 63% NW1621 35 mph 333° @ 0229 AM 41 33 63 47 30.15" 0 0 0 22 0
Smyer  07:15 AM 32 24 73% N1315 29 mph 342° @ 0325 AM 39 32 73 41 30.17" 0 0 0 22 0
Snyder 3E  07:15 AM 36 22 57% NW1722 28 mph 328° @ 0400 AM 45 36 67 48 30.09" 0 0 0   0
Snyder 3SSW  07:15 AM 37 22 54% N1317 25 mph 336° @ 0541 AM 46 37 59 45 30.11" 0 0 1   0
South Plains 3ENE  07:15 AM 35 24 64% N1928 34 mph 1° @ 0512 AM 39 34 64 49 30.13" 0 0 0 24 0
Spur 1W  07:15 AM 39 23 53% N2230 35 mph 1° @ 0650 AM 44 39 53 44 30.08" 0 0 0   0
St. Lawrence 5SW  07:15 AM 36 20 53% NW1721 22 mph 327° @ 0615 AM 42 35 54 49 30.14" 0 0 1   0
Stamford 5ESE  07:15 AM 36 29 74% NW1012 17 mph 298° @ 0257 AM 44 36 76 55 30.07" 0 0 2   0
Sterling City 4WSW  07:15 AM 38 19 45% NW810 14 mph 305° @ 0652 AM 43 37 54 45 30.14" 0 0 1   0
Stinnett 1NNW  07:15 AM 34 24 68% N3135 48 mph 7° @ 0639 AM 36 33 69 54 30.18" 0 0 0 20 0
Stratford 4WNW  07:15 AM 29 26 86% N2934 40 mph 345° @ 0218 AM 39 29 87 49 30.23" 0 0 0 14 0
Sundown 8WSW  07:15 AM 31 24 75% N1720 31 mph 348° @ 0350 AM 39 31 75 36 30.17" 0 0 0 20 0
Sweetwater 11SW   07:15 AM 34 23 63% W13 15 mph 241° @ 0204 AM 45 34 65 47 30.11" 0 0 1   0
Tahoka 3NNE  07:15 AM 33 23 68% NW1415 31 mph 338° @ 0215 AM 41 33 68 44 30.15" 0 0 0 23 0
Tarzan 2WNW  07:15 AM 37 24 61% N1723 29 mph 334° @ 0500 AM 42 36 61 42 30.16" 0 0 0   0
Tatum NM 2SW  07:15 AM 29 22 74% N1619 35 mph 349° @ 0205 AM 38 29 74 36 30.20" 0 0 0 17 0
Throckmorton 1SW  07:15 AM 37 31 79% W1315 17 mph 265° @ 0607 AM 45 36 81 46 30.04" 0 0 2   0
Truscott 2SE  07:15 AM 38 28 67% NW1924 32 mph 330° @ 0639 AM 44 37 75 64 30.05" 0 0 1   0
Tulia 2ENE  07:15 AM 34 25 68% N2835 41 mph 344° @ 0625 AM 35 32 68 55 30.16" 0 0 0 21 0
Turkey 2WSW  07:15 AM 37 25 61% NW2330 40 mph 330° @ 0525 AM 40 37 61 49 30.12" 0 0 0   0
Umbarger 3NNE  07:15 AM 33 25 71% N2732 41 mph 356° @ 0558 AM 34 32 74 51 30.19" 0 0 0 20 0
Van Horn 3ENE  07:15 AM 35 19 52% NE910 24 mph 34° @ 0155 AM 45 35 52 25 30.21" 0 0 0 28 0
Vega 4E  07:15 AM 31 26 82% N2430 42 mph 348° @ 0639 AM 34 31 83 58 30.20" 0 0 0 18 0
Vigo Park  07:15 AM 34 25 70% N2530 37 mph 353° @ 0425 AM 36 33 70 54 30.15" 0 0 0 21 0
Wall 2E  07:15 AM 35 24 62% W910 21 mph 196° @ 1203 AM 49 33 66 37 30.12" 0 0 2 28 0
Weinert 2NNE  07:15 AM 38 28 68% NW1519 22 mph 323° @ 0712 AM 44 36 73 60 30.06" 0 0 1   0
Welch  07:15 AM 34 25 69% N1517 27 mph 342° @ 0114 AM 40 34 69 41 30.17" 0 0 0 24 0
White River Lake 6NW  07:15 AM 37 21 54% NW2935 39 mph 341° @ 0653 AM 42 36 54 46 30.09" 0 0 1   0
Wolfforth 6SSW  07:15 AM 32 25 72% N1722 32 mph 343° @ 1239 AM 39 32 73 42 30.16" 0 0 0 21 0

West Texas Mesonet Home   Site Map/Menu  NWS Lubbock Soil Data  Daily Summary Page  24hr Precip  72hr Precip  Google Plot